Corryton, Tennessee
Current Conditions -  °F | °C
As of 2:55 AM on Monday 24 Nov 2014 (Local Time) from KMOR Reporting Station
Few Clouds Few Clouds  
Wind Chill: 63°   Ceiling: Unl
Heat Index: 63°   Visibility: 10mi
Dew Point: 52°   Wind: 16mph
Humidity: 68%   Direction: 230°SW
Pressure: 29.62"   Gusts: NA
Location:  36.15°N, 83.78°W
Report Text: KMOR 240755Z AUTO 23014KT 10SM FEW050 17/11 A2962 RMK
Loading
Personal Weather Stations






























Interactive Weather Map New forecast layout! Learn more

10-Day Weather Forecast

Advertisements
Track Severe Weather on mobile